Time;durP1;ratioP1;P1;durP2;ratioP2;P2;SDS_P1;SDS_P2;PMS_P1;PMS_P2;Temp;Humidity;BMP_temperature;BMP_pressure;BME280_temperature;BME280_humidity;BME280_pressure;Samples;Min_cycle;Max_cycle;Signal;HPM_P1;HPM_P2
2021/08/16 00:00:38;;;;;;;17.45;9.63;;;21.00;84.10;;;;;;5155843;27;20436;-76
2021/08/16 00:03:04;;;;;;;13.63;9.77;;;21.00;84.50;;;;;;5156137;27;20051;-74
2021/08/16 00:05:30;;;;;;;18.27;9.35;;;20.90;84.90;;;;;;5155994;27;20023;-75
2021/08/16 00:07:55;;;;;;;18.58;9.98;;;20.70;85.40;;;;;;5156091;27;20038;-75
2021/08/16 00:10:21;;;;;;;17.98;10.05;;;20.70;85.70;;;;;;5155784;27;20015;-75
2021/08/16 00:12:48;;;;;;;16.20;10.30;;;20.80;85.70;;;;;;5155772;27;20034;-76
2021/08/16 00:15:13;;;;;;;18.40;9.68;;;20.90;85.30;;;;;;5155911;27;20441;-76
2021/08/16 00:17:39;;;;;;;16.02;10.23;;;20.90;85.50;;;;;;5155714;27;20080;-75
2021/08/16 00:20:06;;;;;;;16.40;9.82;;;20.80;85.60;;;;;;5137261;27;20527;-75
2021/08/16 00:22:32;;;;;;;17.98;9.88;;;20.80;85.90;;;;;;5158128;27;20051;-82
2021/08/16 00:24:57;;;;;;;18.45;10.48;;;20.70;86.00;;;;;;5161396;27;20372;-85
2021/08/16 00:27:23;;;;;;;16.50;9.93;;;20.70;85.80;;;;;;5159970;27;20114;-83
2021/08/16 00:29:49;;;;;;;15.95;10.18;;;20.60;86.20;;;;;;5158619;27;20030;-85
2021/08/16 00:32:14;;;;;;;14.48;9.90;;;20.70;86.20;;;;;;5156610;27;20038;-84
2021/08/16 00:34:40;;;;;;;16.63;10.05;;;20.80;86.00;;;;;;5155787;27;20027;-84
2021/08/16 00:37:05;;;;;;;16.20;10.35;;;20.80;85.80;;;;;;5155759;27;20027;-85
2021/08/16 00:39:31;;;;;;;20.67;10.45;;;20.90;85.90;;;;;;5155615;27;20054;-86
2021/08/16 00:41:57;;;;;;;17.70;10.35;;;20.90;85.20;;;;;;5155332;27;20015;-75
2021/08/16 00:44:23;;;;;;;14.57;10.68;;;20.90;85.20;;;;;;5155291;27;20023;-75
2021/08/16 00:46:50;;;;;;;17.65;10.85;;;21.00;85.10;;;;;;5155212;27;20038;-74
2021/08/16 00:49:16;;;;;;;18.00;10.35;;;20.90;85.40;;;;;;5155181;27;20048;-74
2021/08/16 00:51:41;;;;;;;17.15;10.38;;;20.80;85.30;;;;;;5155555;27;20055;-74
2021/08/16 00:54:08;;;;;;;14.85;9.55;;;20.80;85.40;;;;;;5155129;27;20415;-74
2021/08/16 00:56:36;;;;;;;25.20;10.90;;;20.90;85.70;;;;;;5154955;27;20352;-75
2021/08/16 00:59:02;;;;;;;16.63;9.23;;;20.90;85.50;;;;;;5155166;27;20061;-83
2021/08/16 01:01:28;;;;;;;15.98;9.48;;;20.90;85.40;;;;;;5136465;27;20110;-74
2021/08/16 01:03:55;;;;;;;14.82;10.23;;;20.90;85.30;;;;;;5154729;27;20059;-76
2021/08/16 01:06:20;;;;;;;16.15;9.77;;;20.90;85.30;;;;;;5154894;27;20022;-83
2021/08/16 01:08:48;;;;;;;16.38;9.57;;;21.00;85.10;;;;;;5154776;27;20497;-84
2021/08/16 01:11:15;;;;;;;14.40;9.55;;;21.10;85.00;;;;;;5153912;27;20015;-83
2021/08/16 01:13:42;;;;;;;13.27;9.48;;;21.20;84.60;;;;;;5154573;27;20074;-83
2021/08/16 01:16:07;;;;;;;14.30;8.85;;;21.40;83.80;;;;;;5154679;27;20067;-84
2021/08/16 01:18:34;;;;;;;13.20;8.65;;;21.50;83.20;;;;;;5135894;27;20027;-84
2021/08/16 01:21:02;;;;;;;16.85;9.40;;;21.60;83.00;;;;;;5154776;27;20487;-83
2021/08/16 01:23:28;;;;;;;17.90;9.60;;;21.60;82.70;;;;;;5154877;27;20043;-83
2021/08/16 01:25:54;;;;;;;13.27;8.90;;;21.70;82.70;;;;;;5154754;27;20050;-86
2021/08/16 01:28:21;;;;;;;15.45;8.88;;;21.60;83.00;;;;;;5154777;27;20479;-86
2021/08/16 01:31:01;;;;;;;13.20;8.30;;;21.60;83.00;;;;;;5154781;27;20106;-83
2021/08/16 01:33:28;;;;;;;14.40;9.48;;;21.60;83.40;;;;;;5154855;27;20034;-84
2021/08/16 01:35:54;;;;;;;19.15;9.07;;;21.40;84.60;;;;;;5154793;27;20019;-85
2021/08/16 01:38:21;;;;;;;20.85;10.30;;;21.30;84.70;;;;;;5154816;27;20094;-86
2021/08/16 01:40:47;;;;;;;12.85;9.38;;;21.40;84.80;;;;;;5154770;27;20027;-86
2021/08/16 01:43:13;;;;;;;13.00;8.60;;;21.20;85.20;;;;;;5154741;27;20026;-86
2021/08/16 01:45:39;;;;;;;15.60;7.85;;;21.10;85.00;;;;;;5154661;27;20034;-85
2021/08/16 01:48:05;;;;;;;12.35;6.55;;;21.10;84.00;;;;;;5154799;27;20064;-87
2021/08/16 01:50:31;;;;;;;12.75;6.82;;;21.10;82.80;;;;;;5154799;27;20018;-86
2021/08/16 01:52:56;;;;;;;8.23;5.60;;;21.00;81.30;;;;;;5154469;27;20460;-86
2021/08/16 01:55:22;;;;;;;7.95;5.32;;;21.00;80.40;;;;;;5154863;27;20038;-86
2021/08/16 01:57:48;;;;;;;10.93;6.00;;;21.00;80.50;;;;;;5154781;27;20470;-86
2021/08/16 02:00:13;;;;;;;6.60;5.60;;;21.00;80.50;;;;;;5154781;27;20023;-87
2021/08/16 02:02:40;;;;;;;11.95;5.78;;;21.10;80.70;;;;;;5154576;27;20026;-83
2021/08/16 02:05:06;;;;;;;9.13;6.00;;;21.20;80.60;;;;;;5154797;27;20355;-85
2021/08/16 02:07:31;;;;;;;13.68;7.22;;;21.30;80.30;;;;;;5154510;27;20023;-84
2021/08/16 02:09:57;;;;;;;9.45;6.88;;;21.20;81.70;;;;;;5154575;27;20026;-84
2021/08/16 02:12:23;;;;;;;11.88;7.03;;;21.20;81.80;;;;;;5154365;27;20378;-79
2021/08/16 02:14:48;;;;;;;12.15;7.03;;;21.20;83.00;;;;;;5155993;27;20518;-80
2021/08/16 02:17:14;;;;;;;13.13;7.65;;;21.20;82.40;;;;;;5143817;27;20475;-80
2021/08/16 02:19:39;;;;;;;11.32;7.30;;;21.10;83.40;;;;;;5137385;27;20558;-80
2021/08/16 02:22:05;;;;;;;12.35;6.95;;;21.20;82.20;;;;;;5156656;27;20033;-84
2021/08/16 02:24:30;;;;;;;11.32;7.22;;;21.30;82.10;;;;;;5158171;27;20068;-81
2021/08/16 02:26:56;;;;;;;13.23;6.97;;;21.20;82.20;;;;;;5157946;27;20034;-82
2021/08/16 02:29:22;;;;;;;13.10;7.10;;;21.20;82.50;;;;;;5157992;27;20031;-83
2021/08/16 02:31:47;;;;;;;16.70;7.22;;;21.20;82.30;;;;;;5157819;27;20054;-83
2021/08/16 02:34:13;;;;;;;11.80;6.90;;;21.10;82.50;;;;;;5157766;27;20027;-74
2021/08/16 02:36:39;;;;;;;12.35;6.47;;;21.00;83.00;;;;;;5157746;27;20019;-74
2021/08/16 02:39:04;;;;;;;19.17;8.48;;;20.90;83.30;;;;;;5157668;27;20022;-76
2021/08/16 02:41:30;;;;;;;12.07;7.82;;;20.90;83.40;;;;;;5157674;27;20105;-75
2021/08/16 02:43:55;;;;;;;11.60;7.03;;;21.00;83.50;;;;;;5157669;27;20027;-76
2021/08/16 02:46:21;;;;;;;16.45;7.32;;;21.00;83.30;;;;;;5157715;27;20034;-74
2021/08/16 02:48:47;;;;;;;11.32;7.40;;;21.00;83.30;;;;;;5157613;27;20424;-74
2021/08/16 02:51:13;;;;;;;10.38;7.13;;;21.00;82.80;;;;;;5157392;27;20475;-77
2021/08/16 02:53:38;;;;;;;14.98;7.68;;;20.90;83.20;;;;;;5157397;27;20067;-76
2021/08/16 02:56:04;;;;;;;12.68;8.10;;;21.00;83.50;;;;;;5157404;27;20075;-75
2021/08/16 02:58:30;;;;;;;14.55;7.65;;;20.90;83.60;;;;;;5157274;27;20105;-75
2021/08/16 03:00:55;;;;;;;11.05;7.90;;;21.00;83.60;;;;;;5157237;27;20054;-74
2021/08/16 03:03:21;;;;;;;14.93;7.50;;;21.10;83.30;;;;;;5138492;27;20025;-75
2021/08/16 03:05:47;;;;;;;11.27;7.82;;;21.20;83.10;;;;;;5157282;27;20105;-75
2021/08/16 03:08:12;;;;;;;12.70;8.15;;;21.20;82.60;;;;;;5157402;27;20014;-75
2021/08/16 03:10:38;;;;;;;10.32;7.10;;;21.20;82.40;;;;;;5157253;27;20022;-75
2021/08/16 03:13:04;;;;;;;9.43;7.13;;;21.20;82.50;;;;;;5157530;27;20015;-74
2021/08/16 03:15:30;;;;;;;13.18;7.00;;;21.20;82.50;;;;;;5157550;27;20018;-77
2021/08/16 03:17:55;;;;;;;11.02;7.47;;;21.30;82.70;;;;;;5157978;27;20102;-74
2021/08/16 03:20:21;;;;;;;10.40;6.32;;;21.20;82.20;;;;;;5157417;27;20023;-74
2021/08/16 03:22:46;;;;;;;15.20;7.95;;;21.20;82.60;;;;;;5157076;27;20031;-75
2021/08/16 03:25:12;;;;;;;10.27;7.78;;;21.20;82.10;;;;;;5156911;27;20090;-75
2021/08/16 03:27:38;;;;;;;12.07;6.85;;;21.20;82.30;;;;;;5138974;27;20072;-74
2021/08/16 03:30:06;;;;;;;9.75;6.78;;;21.20;82.20;;;;;;5157041;27;20019;-75
2021/08/16 03:32:34;;;;;;;15.75;7.78;;;21.20;82.10;;;;;;5156597;27;20029;-74
2021/08/16 03:35:00;;;;;;;12.73;7.43;;;21.20;82.20;;;;;;5156510;27;20091;-74
2021/08/16 03:37:32;;;;;;;12.90;8.30;;;21.20;82.20;;;;;;5156971;27;20022;-75
2021/08/16 03:40:02;;;;;;;10.32;7.47;;;21.10;81.00;;;;;;5138533;27;20022;-74
2021/08/16 03:42:28;;;;;;;10.32;6.82;;;21.10;81.70;;;;;;5157436;27;20026;-75
2021/08/16 03:44:54;;;;;;;16.85;8.18;;;21.10;82.80;;;;;;5156750;27;20102;-75
2021/08/16 03:47:19;;;;;;;14.20;7.18;;;21.20;81.20;;;;;;5156424;27;20019;-75
2021/08/16 03:49:45;;;;;;;10.32;7.43;;;21.20;80.00;;;;;;5155735;27;20078;-76
2021/08/16 03:52:11;;;;;;;13.50;7.57;;;21.20;80.60;;;;;;5156081;27;20078;-75
2021/08/16 03:54:37;;;;;;;13.70;7.57;;;21.10;79.20;;;;;;5156150;27;20155;-75
2021/08/16 03:57:03;;;;;;;11.90;7.82;;;21.10;79.70;;;;;;5156583;27;20067;-75
2021/08/16 03:59:28;;;;;;;11.82;7.85;;;21.10;79.40;;;;;;5156171;27;20079;-75
2021/08/16 04:01:54;;;;;;;14.43;8.10;;;21.10;78.90;;;;;;5156285;27;20015;-75
2021/08/16 04:04:19;;;;;;;15.85;8.35;;;21.10;78.60;;;;;;5156210;27;20110;-76
2021/08/16 04:06:45;;;;;;;12.30;7.47;;;21.00;78.90;;;;;;5156433;27;20513;-79
2021/08/16 04:09:11;;;;;;;14.05;7.65;;;21.10;79.20;;;;;;5156451;27;20022;-84
2021/08/16 04:11:38;;;;;;;15.35;8.00;;;21.10;78.80;;;;;;5156677;27;20019;-83
2021/08/16 04:14:04;;;;;;;11.93;7.43;;;21.10;78.30;;;;;;5156401;27;20066;-83
2021/08/16 04:16:29;;;;;;;13.48;7.97;;;21.20;78.50;;;;;;5157523;27;20022;-81
2021/08/16 04:18:55;;;;;;;12.60;8.25;;;21.20;78.30;;;;;;5138500;27;20075;-81
2021/08/16 04:21:21;;;;;;;13.10;8.10;;;21.30;78.50;;;;;;5156743;27;20046;-88
2021/08/16 04:23:46;;;;;;;13.95;7.85;;;21.20;78.40;;;;;;5156453;27;20031;-83
2021/08/16 04:26:12;;;;;;;13.40;7.75;;;21.30;78.70;;;;;;5155935;27;20019;-82
2021/08/16 04:28:38;;;;;;;17.58;9.02;;;21.30;78.90;;;;;;5155826;27;20019;-81
2021/08/16 04:31:03;;;;;;;17.98;9.38;;;21.20;78.40;;;;;;5137534;27;20022;-81
2021/08/16 04:33:29;;;;;;;15.18;8.32;;;21.30;78.70;;;;;;5155838;27;20378;-83
2021/08/16 04:35:55;;;;;;;18.88;9.02;;;21.30;78.40;;;;;;5155457;27;20050;-82
2021/08/16 04:38:22;;;;;;;16.25;8.48;;;21.30;78.10;;;;;;5155763;27;20140;-83
2021/08/16 04:40:50;;;;;;;14.32;8.35;;;21.30;78.10;;;;;;5155650;27;20027;-79
2021/08/16 04:43:16;;;;;;;13.07;7.75;;;21.40;77.90;;;;;;5155715;27;20026;-74
2021/08/16 04:45:42;;;;;;;11.35;7.78;;;21.40;77.70;;;;;;5155353;27;20023;-74
2021/08/16 04:48:08;;;;;;;11.73;8.25;;;21.40;78.00;;;;;;5155472;27;20023;-74
2021/08/16 04:50:34;;;;;;;11.48;8.07;;;21.30;78.50;;;;;;5155244;27;20152;-74
2021/08/16 04:52:59;;;;;;;12.32;8.10;;;21.20;79.10;;;;;;5155024;27;20099;-73
2021/08/16 04:55:25;;;;;;;9.35;7.38;;;21.10;79.80;;;;;;5155076;27;20031;-73
2021/08/16 04:57:51;;;;;;;9.93;7.40;;;21.00;80.00;;;;;;5155145;27;20490;-73
2021/08/16 05:00:20;;;;;;;11.80;8.38;;;21.00;80.30;;;;;;5155178;27;20023;-74
2021/08/16 05:02:45;;;;;;;13.93;8.27;;;21.00;80.90;;;;;;5155132;27;20097;-74
2021/08/16 05:05:14;;;;;;;14.18;8.85;;;21.00;81.00;;;;;;5154992;27;20060;-73
2021/08/16 05:07:53;;;;;;;15.95;8.70;;;21.00;80.90;;;;;;5154937;27;20019;-73
2021/08/16 05:10:20;;;;;;;11.43;8.02;;;20.80;80.50;;;;;;5155300;27;20101;-73
2021/08/16 05:12:47;;;;;;;16.33;8.40;;;20.80;80.80;;;;;;5155723;27;20149;-73
2021/08/16 05:15:12;;;;;;;13.63;8.13;;;20.70;81.00;;;;;;5156379;27;20023;-74
2021/08/16 05:17:38;;;;;;;11.82;7.88;;;20.60;81.60;;;;;;5155032;27;20011;-73
2021/08/16 05:20:07;;;;;;;18.75;8.20;;;20.50;82.40;;;;;;5154967;27;20054;-73
2021/08/16 05:22:34;;;;;;;14.27;8.65;;;20.50;82.50;;;;;;5155126;27;20435;-73
2021/08/16 05:25:00;;;;;;;15.82;9.27;;;20.50;82.60;;;;;;5155375;27;20103;-73
2021/08/16 05:27:25;;;;;;;15.90;9.40;;;20.50;82.50;;;;;;5136018;27;20022;-73
2021/08/16 05:29:51;;;;;;;14.00;8.75;;;20.50;82.40;;;;;;5154516;27;20027;-73
2021/08/16 05:32:17;;;;;;;14.75;8.07;;;20.50;82.40;;;;;;5154818;27;20467;-74
2021/08/16 05:34:43;;;;;;;12.00;8.63;;;20.50;82.30;;;;;;5154804;27;20031;-72
2021/08/16 05:37:09;;;;;;;13.18;8.25;;;20.50;82.20;;;;;;5155051;27;20030;-73
2021/08/16 05:39:35;;;;;;;12.93;8.15;;;20.40;82.50;;;;;;5154452;27;20359;-73
2021/08/16 05:42:01;;;;;;;16.80;8.20;;;20.50;82.50;;;;;;5154442;27;20018;-74
2021/08/16 05:44:27;;;;;;;11.77;7.78;;;20.50;82.30;;;;;;5154682;27;20029;-74
2021/08/16 05:46:53;;;;;;;15.20;8.00;;;20.50;81.80;;;;;;5154449;27;20374;-74
2021/08/16 05:49:19;;;;;;;12.65;8.60;;;20.50;81.70;;;;;;5154469;27;20027;-80
2021/08/16 05:51:44;;;;;;;13.95;8.75;;;20.50;81.60;;;;;;5154329;27;20095;-77
2021/08/16 05:54:10;;;;;;;11.25;7.90;;;20.40;81.70;;;;;;5154249;27;20034;-75
2021/08/16 05:56:36;;;;;;;17.98;8.93;;;20.40;81.70;;;;;;5155287;27;20019;-74
2021/08/16 05:59:01;;;;;;;12.82;8.50;;;20.30;81.40;;;;;;5139890;27;20018;-73
2021/08/16 06:01:27;;;;;;;15.32;8.13;;;20.30;81.10;;;;;;5158271;27;20064;-72
2021/08/16 06:03:52;;;;;;;17.00;9.40;;;20.20;81.70;;;;;;5158353;27;20019;-79
2021/08/16 06:06:18;;;;;;;17.60;9.48;;;20.10;82.20;;;;;;5158262;27;20019;-78
2021/08/16 06:08:43;;;;;;;13.70;8.77;;;20.10;82.70;;;;;;5157933;27;20026;-73
2021/08/16 06:11:09;;;;;;;14.82;9.32;;;20.20;82.50;;;;;;5157817;27;20030;-74
2021/08/16 06:13:34;;;;;;;15.15;8.82;;;20.10;82.40;;;;;;5157737;27;20034;-73
2021/08/16 06:16:00;;;;;;;14.00;7.78;;;20.20;82.30;;;;;;5157971;27;20027;-73
2021/08/16 06:18:26;;;;;;;14.43;8.82;;;20.10;82.70;;;;;;5157907;27;20029;-73
2021/08/16 06:20:52;;;;;;;17.45;8.90;;;20.20;82.40;;;;;;5157899;27;20042;-73
2021/08/16 06:23:17;;;;;;;11.77;8.13;;;20.20;82.60;;;;;;5157855;27;20054;-73
2021/08/16 06:25:43;;;;;;;14.68;8.27;;;20.20;82.80;;;;;;5157749;27;20027;-73
2021/08/16 06:28:08;;;;;;;14.38;8.27;;;20.10;82.60;;;;;;5157725;27;20030;-73
2021/08/16 06:30:34;;;;;;;11.88;8.20;;;20.00;81.90;;;;;;5157727;27;20031;-73
2021/08/16 06:32:59;;;;;;;14.82;8.25;;;20.00;81.70;;;;;;5157584;27;20022;-73
2021/08/16 06:35:25;;;;;;;15.18;8.55;;;19.90;81.90;;;;;;5157703;27;20110;-74
2021/08/16 06:37:51;;;;;;;14.15;8.02;;;19.80;81.50;;;;;;5157703;27;20018;-74
2021/08/16 06:40:17;;;;;;;11.68;7.80;;;19.80;81.10;;;;;;5157832;27;20030;-74
2021/08/16 06:42:42;;;;;;;13.32;7.75;;;19.60;81.60;;;;;;5157760;27;20374;-73
2021/08/16 06:45:09;;;;;;;12.50;7.25;;;19.60;81.90;;;;;;5157511;27;20027;-73
2021/08/16 06:47:34;;;;;;;11.95;7.43;;;19.60;82.20;;;;;;5139109;27;20029;-73
2021/08/16 06:50:00;;;;;;;13.88;7.97;;;19.60;81.90;;;;;;5159870;27;20105;-73
2021/08/16 06:52:25;;;;;;;14.68;7.35;;;19.70;81.40;;;;;;5162404;27;20471;-74
2021/08/16 06:54:51;;;;;;;15.25;7.88;;;19.70;80.90;;;;;;5160858;27;20086;-76
2021/08/16 06:57:16;;;;;;;9.23;6.75;;;19.90;80.30;;;;;;5158371;27;20079;-74
2021/08/16 06:59:42;;;;;;;14.90;7.40;;;20.10;79.80;;;;;;5157268;27;20387;-74
2021/08/16 07:02:08;;;;;;;13.68;7.55;;;20.20;79.20;;;;;;5157036;27;20375;-73
2021/08/16 07:04:35;;;;;;;9.10;6.60;;;20.10;78.70;;;;;;5157081;27;20023;-76
2021/08/16 07:07:01;;;;;;;13.98;7.20;;;20.10;78.10;;;;;;5157169;27;20463;-73
2021/08/16 07:09:27;;;;;;;14.60;7.05;;;20.10;78.50;;;;;;5155734;27;20023;-73
2021/08/16 07:11:54;;;;;;;14.35;6.80;;;20.10;78.70;;;;;;5157111;27;20075;-74
2021/08/16 07:14:20;;;;;;;14.35;7.70;;;20.10;78.70;;;;;;5156865;27;20183;-73
2021/08/16 07:16:46;;;;;;;13.30;7.20;;;20.10;78.30;;;;;;5157022;27;20088;-73
2021/08/16 07:19:11;;;;;;;11.93;6.57;;;20.20;78.00;;;;;;5157106;27;20046;-72
2021/08/16 07:21:37;;;;;;;11.18;6.78;;;20.30;77.80;;;;;;5138291;27;20019;-73
2021/08/16 07:24:03;;;;;;;14.23;7.15;;;20.50;77.10;;;;;;5157017;27;20378;-73
2021/08/16 07:26:29;;;;;;;11.60;6.53;;;20.60;76.30;;;;;;5156760;27;20490;-73
2021/08/16 07:28:54;;;;;;;13.73;7.75;;;20.60;76.20;;;;;;5156859;27;20029;-73
2021/08/16 07:31:20;;;;;;;12.00;6.78;;;20.70;76.00;;;;;;5156799;27;20139;-73
2021/08/16 07:33:45;;;;;;;15.90;7.15;;;20.60;76.30;;;;;;5156581;27;20094;-73
2021/08/16 07:36:11;;;;;;;10.77;6.43;;;20.60;76.50;;;;;;5156797;27;20413;-75
2021/08/16 07:38:37;;;;;;;16.63;6.97;;;20.60;76.70;;;;;;5156352;27;20125;-73
2021/08/16 07:41:02;;;;;;;11.18;6.63;;;20.60;76.30;;;;;;5156450;27;20103;-72
2021/08/16 07:43:28;;;;;;;10.07;5.47;;;20.60;75.90;;;;;;5137644;27;20030;-73
2021/08/16 07:45:53;;;;;;;10.85;5.07;;;20.60;74.60;;;;;;5156328;27;20095;-73
2021/08/16 07:48:19;;;;;;;10.50;4.90;;;20.50;72.90;;;;;;5156211;27;20022;-73
2021/08/16 07:50:45;;;;;;;11.95;5.65;;;20.30;72.30;;;;;;5156145;27;20536;-73
2021/08/16 07:53:10;;;;;;;13.05;5.50;;;20.20;73.30;;;;;;5155934;27;20125;-74
2021/08/16 07:55:36;;;;;;;11.90;5.68;;;20.10;73.50;;;;;;5156129;27;20462;-74
2021/08/16 07:58:02;;;;;;;8.25;5.72;;;20.10;73.40;;;;;;5156005;27;20083;-73
2021/08/16 08:00:27;;;;;;;11.68;5.40;;;20.20;73.10;;;;;;5155951;27;20023;-73
2021/08/16 08:02:53;;;;;;;10.65;5.57;;;20.10;73.90;;;;;;5155631;27;20029;-74
2021/08/16 08:05:21;;;;;;;13.38;5.32;;;20.10;74.00;;;;;;5156062;27;20283;-73
2021/08/16 08:07:47;;;;;;;11.57;5.40;;;20.40;73.10;;;;;;5155772;27;20391;-74
2021/08/16 08:10:14;;;;;;;8.48;4.75;;;20.40;72.10;;;;;;5155717;27;20027;-75
2021/08/16 08:12:40;;;;;;;8.70;4.45;;;20.50;71.40;;;;;;5155592;27;20029;-73
2021/08/16 08:15:07;;;;;;;8.50;4.40;;;20.70;70.70;;;;;;5155144;27;20479;-74
2021/08/16 08:17:33;;;;;;;6.72;4.50;;;20.50;68.20;;;;;;5154973;27;20096;-73
2021/08/16 08:19:59;;;;;;;11.13;4.40;;;20.30;68.90;;;;;;5137045;27;20033;-75
2021/08/16 08:22:26;;;;;;;7.43;4.03;;;20.50;68.70;;;;;;5156888;27;20022;-75
2021/08/16 08:24:52;;;;;;;8.82;4.60;;;20.50;69.10;;;;;;5139403;27;20468;-81
2021/08/16 08:27:19;;;;;;;10.85;4.28;;;20.40;68.10;;;;;;5155944;27;20057;-79
2021/08/16 08:29:45;;;;;;;9.80;4.75;;;20.20;69.00;;;;;;5155600;27;20019;-78
2021/08/16 08:32:12;;;;;;;7.53;4.80;;;20.30;68.90;;;;;;5156198;27;20030;-79
2021/08/16 08:34:38;;;;;;;8.13;4.32;;;20.40;68.10;;;;;;5137057;27;20066;-79
2021/08/16 08:37:15;;;;;;;8.10;4.32;;;20.30;68.70;;;;;;5155647;27;20030;-77
2021/08/16 08:39:41;;;;;;;8.68;4.13;;;20.20;68.80;;;;;;5155385;27;20082;-77
2021/08/16 08:42:11;;;;;;;8.48;4.40;;;20.30;70.10;;;;;;5137007;27;20435;-80
2021/08/16 08:44:36;;;;;;;7.30;4.50;;;20.40;69.20;;;;;;5155367;27;20026;-77
2021/08/16 08:47:02;;;;;;;12.25;4.25;;;20.70;68.10;;;;;;5155602;27;20019;-78
2021/08/16 08:49:28;;;;;;;7.28;4.88;;;20.80;64.70;;;;;;5155233;27;20083;-78
2021/08/16 08:51:53;;;;;;;6.47;3.65;;;20.60;64.80;;;;;;5155916;27;20126;-76
2021/08/16 08:54:19;;;;;;;7.70;4.00;;;20.40;66.80;;;;;;5156378;27;20092;-81
2021/08/16 08:56:46;;;;;;;6.00;3.90;;;20.70;66.80;;;;;;5157521;27;20018;-81
2021/08/16 08:59:12;;;;;;;6.57;4.05;;;20.90;65.50;;;;;;5155935;27;20053;-81
2021/08/16 09:01:50;;;;;;;8.93;3.95;;;21.10;66.80;;;;;;5156278;27;20467;-80
2021/08/16 09:04:15;;;;;;;7.45;4.00;;;21.20;65.20;;;;;;5157043;27;20099;-79
2021/08/16 09:06:42;;;;;;;8.40;4.25;;;21.40;63.40;;;;;;5156535;27;20022;-80
2021/08/16 09:09:07;;;;;;;9.90;4.72;;;21.50;63.70;;;;;;5157364;27;20019;-81
2021/08/16 09:11:33;;;;;;;5.18;3.75;;;21.30;64.80;;;;;;5158495;27;20493;-81
2021/08/16 09:14:01;;;;;;;9.00;4.32;;;21.20;64.40;;;;;;5157076;27;20035;-81
2021/08/16 09:16:29;;;;;;;7.57;3.80;;;21.20;64.10;;;;;;5161138;27;20015;-82
2021/08/16 09:18:56;;;;;;;10.15;4.07;;;21.40;64.90;;;;;;5170738;27;20070;-80
2021/08/16 09:21:36;;;;;;;9.00;4.18;;;21.50;64.70;;;;;;5167087;27;20022;-82
2021/08/16 09:24:04;;;;;;;8.82;4.07;;;21.50;63.90;;;;;;5162884;27;20052;-77
2021/08/16 09:26:32;;;;;;;10.05;4.22;;;21.30;64.10;;;;;;5170425;27;20026;-76
2021/08/16 09:29:13;;;;;;;8.70;4.45;;;21.20;65.50;;;;;;5169578;27;20053;-78
2021/08/16 09:32:03;;;;;;;6.80;4.20;;;21.20;65.10;;;;;;5160609;27;20027;-75
2021/08/16 09:34:40;;;;;;;7.65;4.15;;;21.10;65.50;;;;;;5158192;27;20443;-81
2021/08/16 09:37:17;;;;;;;6.63;4.47;;;21.00;66.20;;;;;;5157566;27;20464;-82
2021/08/16 09:39:43;;;;;;;5.18;3.72;;;21.10;65.50;;;;;;5156726;27;20408;-82
2021/08/16 09:42:10;;;;;;;8.57;3.83;;;20.80;66.00;;;;;;5157821;27;20028;-80
2021/08/16 09:44:47;;;;;;;7.63;4.25;;;20.80;66.00;;;;;;5158014;27;20027;-81
2021/08/16 09:47:12;;;;;;;10.18;4.22;;;20.70;67.20;;;;;;5155683;27;20027;-81
2021/08/16 09:49:38;;;;;;;9.98;3.83;;;20.70;67.50;;;;;;5155318;27;20471;-80
2021/08/16 09:52:12;;;;;;;7.13;4.00;;;20.70;68.30;;;;;;5137310;27;20047;-81
2021/08/16 09:54:39;;;;;;;6.00;3.60;;;20.70;67.20;;;;;;5156551;27;20478;-80
2021/08/16 09:57:07;;;;;;;5.20;3.55;;;20.70;66.60;;;;;;5155298;27;20043;-81
2021/08/16 09:59:34;;;;;;;6.68;3.45;;;20.60;67.10;;;;;;5155243;27;20037;-82
2021/08/16 10:02:01;;;;;;;6.03;3.63;;;20.50;67.40;;;;;;5136699;27;20493;-78
2021/08/16 10:04:28;;;;;;;6.90;3.22;;;20.40;67.50;;;;;;5155173;27;20129;-79
2021/08/16 10:06:56;;;;;;;5.03;3.42;;;20.40;68.50;;;;;;5155199;27;20019;-82
2021/08/16 10:09:23;;;;;;;6.18;3.08;;;20.50;69.40;;;;;;5154862;27;20050;-81
2021/08/16 10:11:50;;;;;;;6.57;3.58;;;20.30;69.70;;;;;;5154859;27;20050;-77
2021/08/16 10:14:18;;;;;;;6.88;3.70;;;20.30;68.80;;;;;;5154842;27;20030;-80
2021/08/16 10:16:47;;;;;;;8.45;3.88;;;20.40;69.10;;;;;;5154512;27;20403;-78
2021/08/16 10:19:25;;;;;;;6.97;3.92;;;20.30;69.20;;;;;;5154244;27;20050;-82
2021/08/16 10:21:55;;;;;;;4.57;3.45;;;20.10;70.20;;;;;;5154144;27;20106;-81
2021/08/16 10:24:25;;;;;;;8.48;3.90;;;20.00;70.80;;;;;;5153586;27;20327;-81
2021/08/16 10:27:07;;;;;;;6.13;3.17;;;19.90;71.30;;;;;;5154202;27;20050;-80
2021/08/16 10:29:33;;;;;;;8.23;3.10;;;20.00;71.20;;;;;;5154016;27;20034;-82
2021/08/16 10:32:01;;;;;;;4.90;2.97;;;20.10;70.40;;;;;;5154165;27;20023;-82
2021/08/16 10:34:38;;;;;;;6.50;3.13;;;20.20;69.50;;;;;;5153960;27;20118;-80
2021/08/16 10:37:09;;;;;;;7.38;2.92;;;20.30;69.90;;;;;;5154000;27;20022;-80
2021/08/16 10:39:43;;;;;;;6.85;3.03;;;20.40;69.30;;;;;;5153690;27;20022;-80
2021/08/16 10:42:14;;;;;;;6.43;3.15;;;20.60;68.70;;;;;;5154148;27;20031;-80
2021/08/16 10:44:47;;;;;;;7.60;3.38;;;20.60;69.00;;;;;;5157469;27;20026;-82
2021/08/16 10:47:30;;;;;;;5.70;2.95;;;20.90;66.70;;;;;;5157691;27;20031;-80
2021/08/16 10:50:09;;;;;;;5.22;3.20;;;20.80;66.70;;;;;;5157711;27;20166;-83
2021/08/16 10:52:41;;;;;;;6.65;2.80;;;20.50;69.00;;;;;;5157374;27;20051;-81
2021/08/16 10:55:14;;;;;;;6.70;3.00;;;20.70;68.10;;;;;;5157455;27;20031;-83
2021/08/16 10:57:40;;;;;;;5.45;3.63;;;20.60;67.60;;;;;;5158139;27;20018;-84
2021/08/16 11:00:08;;;;;;;7.50;3.55;;;20.50;68.20;;;;;;5158047;27;20026;-83
2021/08/16 11:02:34;;;;;;;6.10;3.70;;;20.60;67.60;;;;;;5157401;27;20030;-83
2021/08/16 11:04:59;;;;;;;5.45;3.40;;;20.90;66.30;;;;;;5157540;27;20015;-81
2021/08/16 11:07:26;;;;;;;5.13;3.22;;;21.20;66.00;;;;;;5138746;27;20019;-82
2021/08/16 11:09:59;;;;;;;4.78;3.25;;;21.80;64.70;;;;;;5157235;27;20029;-81
2021/08/16 11:12:42;;;;;;;8.35;3.92;;;22.20;63.10;;;;;;5157400;27;20011;-82
2021/08/16 11:15:12;;;;;;;6.18;3.25;;;22.60;60.70;;;;;;5157155;27;20451;-83
2021/08/16 11:17:37;;;;;;;5.10;3.20;;;23.10;59.10;;;;;;5157101;27;20015;-82
2021/08/16 11:20:06;;;;;;;6.15;3.38;;;23.20;59.40;;;;;;5157334;27;20474;-82
2021/08/16 11:22:31;;;;;;;7.05;3.63;;;23.10;57.60;;;;;;5157132;27;20374;-83
2021/08/16 11:25:05;;;;;;;8.20;3.22;;;22.90;57.10;;;;;;5157959;27;20019;-83
2021/08/16 11:27:30;;;;;;;9.48;3.58;;;22.10;60.40;;;;;;5158026;27;20094;-83
2021/08/16 11:30:06;;;;;;;6.72;3.42;;;21.90;61.10;;;;;;5158835;27;20047;-81
2021/08/16 11:32:34;;;;;;;8.13;4.38;;;21.60;61.20;;;;;;5161404;27;20019;-82
2021/08/16 11:35:00;;;;;;;7.18;3.92;;;21.70;61.60;;;;;;5158252;27;20059;-82
2021/08/16 11:37:34;;;;;;;8.68;3.95;;;21.60;62.10;;;;;;5162666;27;20022;-81
2021/08/16 11:40:00;;;;;;;5.90;3.70;;;21.60;63.00;;;;;;5161497;27;20042;-83
2021/08/16 11:42:26;;;;;;;6.30;3.55;;;21.80;63.60;;;;;;5157869;27;20034;-75
2021/08/16 11:45:14;;;;;;;5.55;3.83;;;22.00;60.90;;;;;;5161118;27;20018;-72
2021/08/16 11:47:44;;;;;;;5.40;3.72;;;21.60;62.60;;;;;;5157006;27;20022;-74
2021/08/16 11:50:16;;;;;;;6.97;3.83;;;21.70;61.40;;;;;;5156919;27;20514;-75
2021/08/16 11:52:41;;;;;;;6.55;2.97;;;22.10;60.50;;;;;;5156418;27;20046;-79
2021/08/16 11:55:09;;;;;;;7.95;3.85;;;22.40;60.60;;;;;;5155496;27;20033;-81
2021/08/16 11:57:35;;;;;;;6.57;3.42;;;22.60;60.00;;;;;;5156399;27;20022;-79
2021/08/16 12:00:03;;;;;;;8.32;3.78;;;22.70;58.70;;;;;;5156177;27;20031;-83
2021/08/16 12:02:34;;;;;;;8.98;3.72;;;22.90;58.00;;;;;;5156091;27;20029;-81
2021/08/16 12:05:00;;;;;;;7.15;4.15;;;23.00;57.20;;;;;;5156192;27;20026;-82
2021/08/16 12:07:27;;;;;;;7.22;3.85;;;22.90;57.00;;;;;;5156158;27;20398;-80
2021/08/16 12:09:54;;;;;;;6.90;3.53;;;22.70;57.20;;;;;;5156120;27;20113;-82
2021/08/16 12:12:26;;;;;;;7.47;3.80;;;22.20;58.10;;;;;;5156027;27;20538;-79
2021/08/16 12:15:09;;;;;;;7.35;4.20;;;21.70;59.40;;;;;;5155473;27;20027;-82
2021/08/16 12:17:35;;;;;;;6.15;3.75;;;21.70;59.80;;;;;;5155710;27;20030;-82
2021/08/16 12:20:08;;;;;;;8.85;3.85;;;21.40;63.20;;;;;;5155488;27;20018;-79
2021/08/16 12:22:57;;;;;;;9.93;4.00;;;21.40;64.10;;;;;;5155590;27;20478;-82
2021/08/16 12:25:24;;;;;;;8.55;4.13;;;21.30;64.70;;;;;;5155440;27;20344;-80
2021/08/16 12:27:55;;;;;;;8.68;4.28;;;21.10;64.90;;;;;;5155556;27;20019;-74
2021/08/16 12:30:21;;;;;;;10.88;4.55;;;21.00;64.80;;;;;;5157449;27;20098;-75
2021/08/16 12:32:46;;;;;;;8.63;3.85;;;21.10;64.00;;;;;;5156158;27;20019;-74
2021/08/16 12:35:21;;;;;;;6.68;4.28;;;21.30;62.20;;;;;;5155363;27;20040;-75
2021/08/16 12:37:59;;;;;;;6.75;3.65;;;21.50;61.70;;;;;;5155147;27;20042;-74
2021/08/16 12:40:24;;;;;;;12.32;5.10;;;22.00;61.10;;;;;;5155058;27;20034;-75